createdAt,value
2022-08-05T00:02:39.427Z,9.93
2022-08-05T00:06:01.594Z,10.57
2022-08-05T00:08:35.450Z,13.20
2022-08-05T00:11:34.465Z,10.10
2022-08-05T00:14:16.819Z,14.30
2022-08-05T00:16:54.032Z,11.27
2022-08-05T00:19:33.322Z,12.48
2022-08-05T00:22:06.590Z,9.98
2022-08-05T00:24:43.676Z,12.98
2022-08-05T00:27:19.651Z,10.50
2022-08-05T00:29:52.247Z,12.45
2022-08-05T00:32:31.093Z,11.40
2022-08-05T00:35:07.830Z,12.60
2022-08-05T00:37:52.707Z,9.07
2022-08-05T00:40:30.877Z,11.48
2022-08-05T00:43:12.515Z,11.13
2022-08-05T00:48:27.452Z,12.15
2022-08-05T00:51:09.035Z,11.88
2022-08-05T00:54:02.243Z,10.07
2022-08-05T00:56:36.955Z,14.88
2022-08-05T00:59:13.609Z,12.70
2022-08-05T01:01:48.990Z,12.43
2022-08-05T01:04:26.976Z,13.70
2022-08-05T01:07:08.579Z,13.82
2022-08-05T01:09:46.878Z,12.80
2022-08-05T01:12:29.714Z,12.77
2022-08-05T01:15:35.675Z,10.98
2022-08-05T01:18:09.635Z,14.18
2022-08-05T01:21:13.546Z,13.90
2022-08-05T01:24:32.870Z,13.60
2022-08-05T01:27:55.313Z,15.52
2022-08-05T01:30:36.508Z,12.98
2022-08-05T01:33:19.644Z,11.68
2022-08-05T01:36:16.011Z,11.73
2022-08-05T01:38:50.916Z,13.93
2022-08-05T01:41:38.204Z,11.68
2022-08-05T01:44:34.230Z,12.27
2022-08-05T01:47:21.506Z,11.32
2022-08-05T01:50:00.317Z,11.65
2022-08-05T01:52:40.528Z,15.25
2022-08-05T01:55:21.678Z,13.40
2022-08-05T01:58:10.210Z,11.85
2022-08-05T02:00:55.156Z,11.27
2022-08-05T02:03:47.324Z,9.80
2022-08-05T02:06:33.450Z,10.10
2022-08-05T02:09:16.430Z,14.85
2022-08-05T02:12:32.861Z,10.80
2022-08-05T02:15:33.195Z,13.93
2022-08-05T02:18:44.628Z,10.48
2022-08-05T02:21:46.776Z,9.73
2022-08-05T02:24:55.408Z,10.18
2022-08-05T02:27:57.880Z,10.45
2022-08-05T02:30:54.810Z,10.57
2022-08-05T02:33:45.544Z,9.65
2022-08-05T02:36:31.198Z,11.48
2022-08-05T02:39:12.239Z,12.68
2022-08-05T02:42:01.140Z,9.88
2022-08-05T02:44:40.762Z,8.02
2022-08-05T02:48:11.519Z,10.63
2022-08-05T02:50:45.391Z,9.25
2022-08-05T02:56:18.792Z,9.45
2022-08-05T02:59:07.675Z,10.55
2022-08-05T03:02:16.843Z,9.02
2022-08-05T03:04:58.240Z,10.18
2022-08-05T03:08:00.409Z,10.73
2022-08-05T03:15:06.777Z,11.30
2022-08-05T03:16:23.357Z,11.10
2022-08-05T03:19:12.858Z,14.25
2022-08-05T03:22:05.047Z,11.35
2022-08-05T03:28:25.925Z,10.07
2022-08-05T03:31:04.291Z,10.40
2022-08-05T03:37:22.199Z,10.82
2022-08-05T03:39:47.356Z,12.80
2022-08-05T03:42:52.217Z,11.60
2022-08-05T03:45:23.655Z,11.25
2022-08-05T03:47:58.864Z,13.02
2022-08-05T03:52:38.875Z,12.60
2022-08-05T03:55:06.918Z,15.80
2022-08-05T03:57:41.821Z,13.57
2022-08-05T04:00:16.734Z,13.43
2022-08-05T04:02:58.978Z,16.52
2022-08-05T04:05:35.559Z,16.00
2022-08-05T04:08:14.532Z,14.05
2022-08-05T04:11:04.141Z,14.18
2022-08-05T04:13:53.472Z,15.75
2022-08-05T04:16:32.465Z,11.85
2022-08-05T04:19:10.545Z,17.60
2022-08-05T04:22:09.086Z,14.20
2022-08-05T04:24:36.056Z,13.45
2022-08-05T04:27:08.831Z,11.85
2022-08-05T04:29:43.891Z,15.13
2022-08-05T04:32:30.561Z,15.82
2022-08-05T04:35:04.661Z,15.63
2022-08-05T04:38:02.493Z,11.55
2022-08-05T04:40:35.416Z,16.15
2022-08-05T04:43:11.037Z,13.55
2022-08-05T04:45:54.920Z,14.25
2022-08-05T04:48:28.550Z,14.73
2022-08-05T04:51:11.338Z,14.55
2022-08-05T04:53:44.291Z,13.35
2022-08-05T04:56:35.035Z,15.50
2022-08-05T04:59:21.696Z,13.32
2022-08-05T05:02:08.196Z,16.63
2022-08-05T05:04:51.744Z,14.68
2022-08-05T05:07:29.560Z,16.42
2022-08-05T05:10:06.663Z,15.75
2022-08-05T05:12:39.486Z,14.20
2022-08-05T05:15:12.660Z,14.52
2022-08-05T05:17:56.460Z,16.48
2022-08-05T05:20:30.884Z,14.85
2022-08-05T05:23:08.408Z,13.87
2022-08-05T05:25:52.603Z,14.85
2022-08-05T05:28:25.348Z,13.23
2022-08-05T05:30:58.387Z,13.48
2022-08-05T05:33:31.354Z,13.15
2022-08-05T05:36:24.035Z,13.52
2022-08-05T05:39:03.717Z,12.15
2022-08-05T05:41:40.538Z,14.32
2022-08-05T05:44:35.949Z,14.30
2022-08-05T05:47:21.337Z,14.35
2022-08-05T05:50:01.297Z,19.08
2022-08-05T05:52:40.538Z,13.80
2022-08-05T05:55:15.537Z,13.30
2022-08-05T05:57:52.683Z,14.38
2022-08-05T06:00:31.309Z,11.82
2022-08-05T06:03:40.096Z,13.60
2022-08-05T06:05:59.667Z,15.98
2022-08-05T06:08:35.205Z,16.00
2022-08-05T06:11:13.434Z,17.83
2022-08-05T06:13:50.525Z,16.75
2022-08-05T06:16:36.643Z,12.35
2022-08-05T06:19:12.444Z,15.20
2022-08-05T06:21:49.803Z,13.27
2022-08-05T06:24:25.824Z,16.35
2022-08-05T06:27:01.314Z,18.90
2022-08-05T06:29:48.914Z,17.38
2022-08-05T06:32:29.437Z,14.98
2022-08-05T06:35:06.074Z,17.05
2022-08-05T06:37:58.177Z,14.20
2022-08-05T06:40:33.618Z,16.95
2022-08-05T06:43:06.393Z,15.38
2022-08-05T06:46:03.832Z,16.75
2022-08-05T06:48:52.887Z,15.32
2022-08-05T06:51:31.323Z,15.82
2022-08-05T06:54:07.144Z,12.18
2022-08-05T06:56:42.876Z,17.02
2022-08-05T06:59:27.894Z,13.55
2022-08-05T07:02:00.762Z,14.02
2022-08-05T07:04:34.363Z,15.00
2022-08-05T07:07:11.221Z,16.85
2022-08-05T07:09:47.882Z,17.17
2022-08-05T07:12:49.188Z,16.98
2022-08-05T07:16:00.816Z,12.20
2022-08-05T07:18:34.399Z,13.38
2022-08-05T07:21:07.907Z,15.60
2022-08-05T07:23:49.149Z,11.55
2022-08-05T07:26:25.010Z,16.83
2022-08-05T07:28:59.653Z,11.35
2022-08-05T07:31:54.005Z,15.57
2022-08-05T07:34:28.578Z,17.35
2022-08-05T07:37:01.497Z,11.38
2022-08-05T07:40:26.887Z,13.40
2022-08-05T07:42:33.819Z,12.10
2022-08-05T07:45:09.276Z,12.07
2022-08-05T07:47:42.744Z,9.55
2022-08-05T07:50:16.651Z,10.15
2022-08-05T07:52:49.969Z,11.13
2022-08-05T07:55:44.195Z,9.63
2022-08-05T07:58:57.529Z,10.95
2022-08-05T08:01:15.407Z,9.65
2022-08-05T08:03:48.601Z,11.38
2022-08-05T08:06:28.118Z,9.05
2022-08-05T08:09:06.801Z,9.48
2022-08-05T08:11:58.945Z,7.85
2022-08-05T08:14:40.789Z,7.32
2022-08-05T08:17:39.580Z,7.97
2022-08-05T08:26:57.561Z,6.45
2022-08-05T08:27:07.677Z,7.20
2022-08-05T08:32:53.850Z,9.13
2022-08-05T08:35:41.198Z,6.25
2022-08-05T08:40:07.299Z,6.32
2022-08-05T08:41:52.115Z,4.75
2022-08-05T08:45:17.714Z,7.47
2022-08-05T08:52:17.777Z,6.13
2022-08-05T08:56:02.613Z,5.88
2022-08-05T09:01:35.955Z,3.25
2022-08-05T09:04:21.835Z,3.50
2022-08-05T09:07:29.222Z,3.15
2022-08-05T09:10:17.691Z,4.68
2022-08-05T09:13:12.177Z,3.63
2022-08-05T09:15:49.591Z,4.97
2022-08-05T09:18:51.637Z,4.03
2022-08-05T09:24:44.212Z,4.82
2022-08-05T09:28:04.632Z,3.88
2022-08-05T09:30:31.734Z,4.63
2022-08-05T09:33:17.472Z,4.38
2022-08-05T09:36:11.857Z,2.67
2022-08-05T09:39:45.840Z,2.95
2022-08-05T09:42:28.534Z,4.10
2022-08-05T09:45:17.826Z,3.17
2022-08-05T09:48:01.074Z,3.60
2022-08-05T09:50:44.445Z,3.45
2022-08-05T09:53:26.202Z,4.28
2022-08-05T09:56:13.150Z,2.57
2022-08-05T09:59:06.805Z,4.47
2022-08-05T10:01:45.863Z,3.80
2022-08-05T10:04:18.986Z,3.08
2022-08-05T10:07:19.458Z,4.65
2022-08-05T10:10:04.235Z,3.97
2022-08-05T10:12:52.679Z,3.25
2022-08-05T10:15:36.571Z,3.80
2022-08-05T10:18:19.870Z,5.93
2022-08-05T10:20:56.757Z,4.63
2022-08-05T10:23:56.217Z,3.97
2022-08-05T10:26:32.398Z,3.70
2022-08-05T10:29:07.551Z,3.30
2022-08-05T10:32:53.997Z,5.07
2022-08-05T10:34:34.786Z,2.67
2022-08-05T10:40:03.255Z,3.88
2022-08-05T10:42:39.310Z,1.63
2022-08-05T10:45:39.811Z,3.78
2022-08-05T10:48:56.519Z,3.38
2022-08-05T10:51:57.285Z,3.97
2022-08-05T10:55:05.869Z,4.38
2022-08-05T10:57:41.274Z,1.40
2022-08-05T11:00:23.097Z,1.85
2022-08-05T11:03:24.625Z,1.42
2022-08-05T11:06:16.135Z,3.00
2022-08-05T11:09:24.478Z,1.38
2022-08-05T11:12:06.164Z,0.98
2022-08-05T11:18:07.539Z,2.33
2022-08-05T11:20:43.882Z,2.88
2022-08-05T11:24:04.387Z,1.92
2022-08-05T11:26:34.593Z,1.00
2022-08-05T11:29:13.537Z,1.23
2022-08-05T11:31:54.275Z,1.10
2022-08-05T11:34:50.748Z,1.92
2022-08-05T11:38:29.466Z,1.08
2022-08-05T11:41:35.621Z,3.33
2022-08-05T11:44:11.425Z,1.17
2022-08-05T11:47:09.197Z,1.25
2022-08-05T11:49:43.461Z,2.22
2022-08-05T11:52:29.259Z,0.52
2022-08-05T11:55:07.336Z,1.75
2022-08-05T11:58:09.811Z,1.52
2022-08-05T12:00:41.182Z,0.90
2022-08-05T12:03:23.789Z,1.95
2022-08-05T12:06:06.457Z,2.28
2022-08-05T12:08:53.377Z,1.13
2022-08-05T12:11:40.183Z,2.92
2022-08-05T12:14:14.707Z,2.00
2022-08-05T12:16:49.586Z,1.55
2022-08-05T12:20:26.353Z,2.50
2022-08-05T12:22:26.361Z,2.05
2022-08-05T12:24:59.640Z,2.42
2022-08-05T12:27:35.713Z,1.17
2022-08-05T12:30:29.132Z,3.35
2022-08-05T12:33:07.127Z,2.80
2022-08-05T12:35:58.565Z,4.00
2022-08-05T12:41:13.250Z,3.33
2022-08-05T12:44:11.602Z,4.00
2022-08-05T12:46:56.564Z,2.28
2022-08-05T12:50:04.197Z,2.75
2022-08-05T12:52:42.697Z,2.03
2022-08-05T12:55:23.946Z,2.38
2022-08-05T12:58:51.273Z,1.88
2022-08-05T13:02:03.021Z,2.88
2022-08-05T13:03:48.865Z,2.55
2022-08-05T13:06:26.449Z,1.70
2022-08-05T13:09:08.659Z,3.80
2022-08-05T13:12:01.503Z,2.08
2022-08-05T13:17:41.900Z,1.95
2022-08-05T13:20:21.796Z,2.70
2022-08-05T13:23:00.313Z,1.95
2022-08-05T13:25:51.830Z,2.10
2022-08-05T13:28:29.465Z,2.13
2022-08-05T13:31:13.949Z,2.53
2022-08-05T13:34:23.604Z,1.35
2022-08-05T13:36:46.634Z,4.55
2022-08-05T13:40:14.362Z,0.63
2022-08-05T13:42:15.405Z,0.88
2022-08-05T13:47:35.860Z,1.52
2022-08-05T13:50:19.736Z,1.15
2022-08-05T13:52:52.692Z,1.20
2022-08-05T13:55:41.774Z,1.13
2022-08-05T13:58:30.297Z,1.92
2022-08-05T14:01:12.965Z,0.80
2022-08-05T14:04:05.738Z,0.70
2022-08-05T14:06:39.932Z,1.35
2022-08-05T14:09:30.332Z,1.27
2022-08-05T14:12:17.662Z,1.77
2022-08-05T14:14:56.904Z,1.80
2022-08-05T14:17:29.832Z,0.40
2022-08-05T14:20:07.459Z,1.73
2022-08-05T14:22:40.670Z,4.28
2022-08-05T14:25:28.090Z,4.97
2022-08-05T14:28:01.165Z,1.95
2022-08-05T14:30:33.748Z,1.25
2022-08-05T14:33:09.898Z,1.58
2022-08-05T14:35:51.339Z,2.50
2022-08-05T14:38:34.064Z,0.90
2022-08-05T14:44:01.930Z,1.90
2022-08-05T14:46:34.993Z,3.13
2022-08-05T14:49:08.439Z,3.67
2022-08-05T14:51:42.911Z,1.23
2022-08-05T14:54:27.723Z,1.23
2022-08-05T14:57:05.273Z,1.45
2022-08-05T14:59:42.212Z,1.10
2022-08-05T15:02:16.062Z,3.20
2022-08-05T15:04:49.917Z,1.23
2022-08-05T15:08:08.681Z,2.60
2022-08-05T15:10:15.831Z,2.30
2022-08-05T15:13:00.173Z,2.42
2022-08-05T15:15:53.893Z,2.47
2022-08-05T15:18:27.747Z,1.42
2022-08-05T15:21:07.174Z,2.33
2022-08-05T15:23:40.575Z,1.35
2022-08-05T15:26:13.447Z,2.00
2022-08-05T15:28:54.438Z,1.30
2022-08-05T15:31:34.534Z,1.23
2022-08-05T15:34:32.443Z,1.05
2022-08-05T15:37:06.974Z,2.83
2022-08-05T15:40:59.231Z,2.40
2022-08-05T15:42:54.609Z,1.85
2022-08-05T15:45:37.932Z,2.83
2022-08-05T15:48:13.994Z,1.17
2022-08-05T15:50:50.493Z,3.42
2022-08-05T15:53:26.564Z,1.33
2022-08-05T15:56:14.146Z,1.50
2022-08-05T15:58:56.930Z,1.25
2022-08-05T16:01:39.598Z,1.80
2022-08-05T16:04:53.386Z,1.45
2022-08-05T16:07:39.501Z,3.50
2022-08-05T16:10:55.113Z,0.85
2022-08-05T16:13:53.475Z,3.45
2022-08-05T16:16:29.706Z,0.68
2022-08-05T16:19:09.764Z,2.50
2022-08-05T16:22:00.528Z,1.23
2022-08-05T16:24:40.143Z,1.10
2022-08-05T16:27:16.007Z,1.52
2022-08-05T16:29:50.175Z,4.53
2022-08-05T16:32:28.590Z,2.95
2022-08-05T16:35:03.619Z,0.98
2022-08-05T16:38:02.930Z,1.83
2022-08-05T16:40:30.949Z,2.60
2022-08-05T16:43:06.751Z,1.05
2022-08-05T16:46:06.745Z,3.50
2022-08-05T16:48:35.068Z,1.73
2022-08-05T16:51:09.792Z,1.33
2022-08-05T16:54:05.727Z,2.38
2022-08-05T16:56:36.359Z,0.88
2022-08-05T16:59:10.373Z,1.95
2022-08-05T17:04:28.892Z,1.02
2022-08-05T17:07:03.278Z,1.80
2022-08-05T17:09:56.028Z,2.05
2022-08-05T17:12:51.928Z,3.30
2022-08-05T17:15:23.926Z,4.45
2022-08-05T17:18:02.386Z,2.70
2022-08-05T17:20:35.193Z,2.33
2022-08-05T17:23:09.828Z,3.72
2022-08-05T17:26:02.452Z,3.85
2022-08-05T17:28:36.232Z,1.90
2022-08-05T17:31:24.039Z,2.00
2022-08-05T17:34:01.967Z,3.33
2022-08-05T17:36:40.365Z,1.10
2022-08-05T17:39:24.410Z,2.00
2022-08-05T17:42:28.611Z,3.13
2022-08-05T17:45:09.897Z,1.92
2022-08-05T17:47:56.043Z,2.70
2022-08-05T17:50:30.711Z,1.95
2022-08-05T17:53:05.107Z,2.28
2022-08-05T17:55:40.050Z,2.22
2022-08-05T17:58:14.539Z,1.83
2022-08-05T18:00:50.700Z,2.50
2022-08-05T18:03:56.315Z,4.90
2022-08-05T18:06:17.577Z,1.58
2022-08-05T18:11:36.569Z,1.27
2022-08-05T18:14:13.349Z,2.90
2022-08-05T18:16:51.909Z,2.65
2022-08-05T18:19:37.859Z,1.52
2022-08-05T18:22:17.975Z,2.65
2022-08-05T18:24:51.973Z,1.38
2022-08-05T18:27:24.784Z,1.83
2022-08-05T18:29:57.864Z,3.33
2022-08-05T18:32:33.701Z,1.83
2022-08-05T18:35:07.423Z,5.15
2022-08-05T18:37:44.203Z,3.65
2022-08-05T18:41:50.162Z,3.20
2022-08-05T18:43:16.884Z,2.40
2022-08-05T18:45:52.089Z,3.55
2022-08-05T18:48:33.158Z,3.15
2022-08-05T18:52:04.324Z,5.53
2022-08-05T18:54:20.205Z,2.95
2022-08-05T18:56:53.121Z,4.53
2022-08-05T18:59:44.038Z,4.67
2022-08-05T19:02:27.690Z,2.00
2022-08-05T19:06:05.532Z,3.17
2022-08-05T19:08:15.279Z,4.13
2022-08-05T19:10:49.727Z,2.60
2022-08-05T19:16:00.256Z,4.28
2022-08-05T19:18:47.840Z,5.20
2022-08-05T19:21:22.862Z,5.55
2022-08-05T19:24:05.544Z,2.67
2022-08-05T19:26:43.823Z,2.63
2022-08-05T19:29:35.724Z,4.63
2022-08-05T19:32:13.671Z,4.25
2022-08-05T19:34:55.145Z,3.13
2022-08-05T19:37:47.386Z,3.88
2022-08-05T19:40:24.205Z,2.35
2022-08-05T19:43:04.634Z,2.88
2022-08-05T19:45:38.461Z,1.85
2022-08-05T19:48:33.001Z,5.32
2022-08-05T19:51:06.780Z,5.00
2022-08-05T19:54:04.022Z,3.92
2022-08-05T19:56:36.967Z,2.55
2022-08-05T19:59:21.335Z,2.97
2022-08-05T20:02:07.024Z,4.70
2022-08-05T20:04:42.835Z,2.13
2022-08-05T20:07:46.618Z,5.25
2022-08-05T20:10:14.807Z,4.03
2022-08-05T20:12:50.651Z,4.97
2022-08-05T20:15:52.114Z,4.63
2022-08-05T20:18:32.705Z,5.50
2022-08-05T20:21:08.420Z,10.95
2022-08-05T20:23:51.129Z,3.45
2022-08-05T20:29:06.591Z,3.47
2022-08-05T20:32:03.614Z,5.25
2022-08-05T20:34:36.821Z,5.55
2022-08-05T20:37:24.148Z,4.78
2022-08-05T20:40:09.988Z,3.03
2022-08-05T20:42:43.623Z,4.65
2022-08-05T20:45:16.704Z,4.57
2022-08-05T20:47:53.806Z,3.20
2022-08-05T20:50:26.731Z,3.53
2022-08-05T20:53:00.092Z,4.38
2022-08-05T20:55:56.220Z,4.82
2022-08-05T20:58:31.344Z,3.08
2022-08-05T21:01:04.976Z,6.68
2022-08-05T21:03:47.885Z,4.50
2022-08-05T21:06:28.534Z,5.65
2022-08-05T21:09:04.654Z,4.38
2022-08-05T21:12:10.463Z,4.10
2022-08-05T21:14:35.294Z,4.53
2022-08-05T21:17:08.358Z,5.38
2022-08-05T21:19:47.444Z,5.03
2022-08-05T21:22:23.976Z,5.93
2022-08-05T21:24:58.166Z,5.32
2022-08-05T21:27:38.569Z,5.28
2022-08-05T21:30:17.439Z,6.38
2022-08-05T21:32:50.554Z,4.75
2022-08-05T21:35:30.174Z,5.50
2022-08-05T21:38:16.800Z,4.40
2022-08-05T21:40:50.012Z,5.35
2022-08-05T21:43:24.722Z,4.32
2022-08-05T21:46:00.446Z,3.78
2022-08-05T21:48:35.965Z,4.88
2022-08-05T21:52:16.619Z,6.55
2022-08-05T21:54:03.798Z,5.70
2022-08-05T21:56:44.671Z,7.30
2022-08-05T21:59:28.014Z,4.25
2022-08-05T22:02:10.633Z,6.90
2022-08-05T22:04:43.633Z,4.88
2022-08-05T22:07:16.637Z,5.25
2022-08-05T22:09:49.603Z,6.95
2022-08-05T22:12:26.461Z,7.47
2022-08-05T22:15:00.684Z,8.07
2022-08-05T22:17:33.636Z,6.43
2022-08-05T22:20:14.880Z,5.50
2022-08-05T22:23:17.104Z,5.05
2022-08-05T22:26:14.966Z,3.72
2022-08-05T22:28:47.935Z,5.32
2022-08-05T22:31:22.424Z,7.35
2022-08-05T22:34:01.591Z,4.45
2022-08-05T22:36:35.182Z,3.33
2022-08-05T22:39:12.826Z,6.30
2022-08-05T22:42:09.494Z,7.03
2022-08-05T22:44:55.488Z,8.88
2022-08-05T22:47:30.688Z,6.88
2022-08-05T22:50:20.195Z,5.55
2022-08-05T22:52:56.097Z,5.43
2022-08-05T22:55:56.243Z,7.28
2022-08-05T22:58:28.785Z,3.20
2022-08-05T23:01:02.273Z,6.75
2022-08-05T23:03:58.195Z,8.48
2022-08-05T23:06:27.940Z,6.32
2022-08-05T23:09:24.678Z,5.43
2022-08-05T23:11:54.501Z,5.95
2022-08-05T23:14:31.999Z,6.07
2022-08-05T23:17:24.232Z,4.93
2022-08-05T23:20:17.636Z,6.18
2022-08-05T23:22:50.922Z,4.05
2022-08-05T23:25:52.144Z,7.88
2022-08-05T23:28:28.713Z,7.82
2022-08-05T23:31:15.942Z,7.50
2022-08-05T23:34:05.658Z,6.75
2022-08-05T23:36:44.310Z,4.38
2022-08-05T23:39:31.931Z,8.73
2022-08-05T23:42:14.579Z,7.88
2022-08-05T23:44:54.338Z,10.02
2022-08-05T23:47:27.780Z,7.53
2022-08-05T23:50:09.638Z,8.40
2022-08-05T23:52:49.513Z,10.23
2022-08-05T23:55:24.743Z,9.05
2022-08-05T23:58:05.363Z,8.82
